Terminal Aerodrome Forecast
Issued by NWS

Home | Current Version | Previous Version | Graphics & Text | Print | Product List | Glossary On
Versions: 1 2 3 4 5 6 7 8 9 10 11 12 13 14 15 16 17 18 19 20 21 22 23 24 25
753
FTUS43 KGRB 280922 AAA
TAFMTW
TAF AMD
KMTW 280922Z 2809/2906 16007KT 4SM BR SCT010 BKN040
      TEMPO 2809/2812 1 1/2SM -SHRA BR BKN003 OVC010
     FM281200 17007KT 1 1/2SM BR OVC010
     FM281500 17010KT 3SM BR OVC015
     FM281800 17012KT P6SM VCSH BKN020
     FM282000 17012KT P6SM VCSH BKN040
     FM290000 17010KT P6SM VCSH SCT250
     FM290300 18008KT P6SM VCSH SCT040 BKN070=

USA.gov is the U.S. government's official web portal to all federal, state and local government web resources and services.